Time;durP1;ratioP1;P1;durP2;ratioP2;P2;SDS_P1;SDS_P2;PMS_P1;PMS_P2;Temp;Humidity;BMP_temperature;BMP_pressure;BME280_temperature;BME280_humidity;BME280_pressure;Samples;Min_cycle;Max_cycle;Signal;HPM_P1;HPM_P2
2022/03/05 00:00:27;;;;;;;40.57;18.63;;;-0.30;99.90;;;;;;4996198;28;20243;-77
2022/03/05 00:02:55;;;;;;;39.33;19.20;;;-0.30;99.90;;;;;;5006904;28;20201;-77
2022/03/05 00:05:22;;;;;;;43.60;18.00;;;-0.30;99.90;;;;;;4997740;28;20275;-77
2022/03/05 00:07:52;;;;;;;40.60;19.03;;;-0.40;99.90;;;;;;4980261;28;20251;-77
2022/03/05 00:10:22;;;;;;;39.37;18.67;;;-0.30;99.90;;;;;;4995478;28;20256;-77
2022/03/05 00:12:50;;;;;;;39.63;18.27;;;-0.30;99.90;;;;;;5006341;28;20221;-77
2022/03/05 00:15:20;;;;;;;37.10;17.87;;;-0.40;99.90;;;;;;5010930;28;20864;-77
2022/03/05 00:17:49;;;;;;;41.30;17.97;;;-0.40;99.90;;;;;;4977701;28;20213;-78
2022/03/05 00:20:16;;;;;;;42.87;18.67;;;-0.50;99.90;;;;;;4991157;28;20213;-77
2022/03/05 00:22:44;;;;;;;42.00;18.37;;;-0.50;99.90;;;;;;4994372;28;20212;-78
2022/03/05 00:25:11;;;;;;;39.73;19.27;;;-0.40;99.90;;;;;;5000852;28;20735;-78
2022/03/05 00:27:39;;;;;;;35.93;17.20;;;-0.50;99.90;;;;;;4994760;28;20201;-77
2022/03/05 00:30:09;;;;;;;43.97;18.73;;;-0.60;99.90;;;;;;5009315;28;20205;-78
2022/03/05 00:32:36;;;;;;;46.43;19.43;;;-0.60;1.00;;;;;;4992196;28;20216;-77
2022/03/05 00:35:05;;;;;;;35.73;17.93;;;-0.60;1.00;;;;;;4997974;28;20239;-77
2022/03/05 00:37:32;;;;;;;35.93;18.50;;;-0.70;1.00;;;;;;4996093;28;20190;-77
2022/03/05 00:39:59;;;;;;;37.30;17.50;;;-0.70;1.00;;;;;;5003313;28;20273;-77
2022/03/05 00:42:27;;;;;;;38.30;18.50;;;-0.70;1.00;;;;;;5014658;28;20949;-77
2022/03/05 00:44:54;;;;;;;42.30;18.40;;;-0.70;1.00;;;;;;5003167;28;20201;-77
2022/03/05 00:47:24;;;;;;;43.63;20.17;;;-0.70;1.00;;;;;;5008137;28;20229;-77
2022/03/05 00:49:52;;;;;;;40.37;18.70;;;-0.70;1.00;;;;;;5005384;28;20229;-77
2022/03/05 00:52:22;;;;;;;39.70;18.53;;;-0.70;1.00;;;;;;5010907;28;20201;-78
2022/03/05 00:54:49;;;;;;;38.47;19.93;;;-0.70;1.00;;;;;;4995370;28;20303;-78
2022/03/05 00:57:19;;;;;;;41.93;18.13;;;-0.80;1.00;;;;;;5004096;28;20881;-78
2022/03/05 00:59:47;;;;;;;41.97;18.80;;;-0.80;1.00;;;;;;4994098;28;20200;-78
2022/03/05 01:02:14;;;;;;;39.53;18.53;;;-0.80;1.00;;;;;;5007287;28;20212;-78
2022/03/05 01:04:44;;;;;;;39.13;18.57;;;-0.80;1.00;;;;;;4995606;28;20267;-78
2022/03/05 01:07:12;;;;;;;39.13;18.60;;;-0.80;1.00;;;;;;5006339;28;20235;-77
2022/03/05 01:09:46;;;;;;;40.47;19.43;;;-0.10;1.00;;;;;;5006443;28;20733;-77
2022/03/05 01:12:17;;;;;;;43.57;19.17;;;-0.80;1.00;;;;;;4994624;28;20307;-77
2022/03/05 01:14:44;;;;;;;42.33;18.50;;;-0.80;1.00;;;;;;5003700;28;20669;-77
2022/03/05 01:17:14;;;;;;;43.27;18.93;;;-0.90;1.00;;;;;;5007088;28;20208;-78
2022/03/05 01:19:41;;;;;;;44.07;20.20;;;-0.60;1.00;;;;;;5022157;28;20574;-78
2022/03/05 01:22:08;;;;;;;46.93;20.03;;;-0.90;1.00;;;;;;5004826;28;21155;-77
2022/03/05 01:24:35;;;;;;;45.57;19.10;;;-0.80;1.00;;;;;;5005342;28;20204;-77
2022/03/05 01:27:08;;;;;;;42.13;18.97;;;-0.90;1.00;;;;;;5010330;28;20587;-78
2022/03/05 01:29:35;;;;;;;41.53;19.23;;;-0.90;1.00;;;;;;5010942;28;20244;-77
2022/03/05 01:32:08;;;;;;;41.37;17.30;;;-0.90;1.00;;;;;;5023146;28;20197;-77
2022/03/05 01:34:39;;;;;;;40.60;18.50;;;-0.90;1.00;;;;;;5003615;28;20537;-77
2022/03/05 01:37:09;;;;;;;36.27;17.70;;;-0.90;1.00;;;;;;5007147;28;20272;-78
2022/03/05 01:39:37;;;;;;;39.40;17.40;;;-1.00;1.00;;;;;;5015980;28;20224;-77
2022/03/05 01:42:09;;;;;;;40.80;18.17;;;-1.10;1.00;;;;;;5002510;28;20197;-76
2022/03/05 01:44:36;;;;;;;38.37;17.73;;;-1.10;1.00;;;;;;5000363;28;20208;-77
2022/03/05 01:47:07;;;;;;;37.87;17.77;;;-1.10;1.00;;;;;;5000201;28;20245;-77
2022/03/05 01:49:34;;;;;;;41.80;18.37;;;-1.20;1.00;;;;;;4991033;28;20691;-78
2022/03/05 01:52:01;;;;;;;38.40;18.80;;;-1.30;1.00;;;;;;5019522;28;20201;-78
2022/03/05 01:54:32;;;;;;;38.20;18.77;;;-1.30;1.00;;;;;;5005871;28;20280;-78
2022/03/05 01:57:01;;;;;;;38.60;19.17;;;-1.40;1.00;;;;;;5019244;28;20920;-77
2022/03/05 01:59:32;;;;;;;42.83;19.40;;;-1.40;1.00;;;;;;5008368;28;20193;-78
2022/03/05 02:02:00;;;;;;;40.33;18.67;;;-1.40;1.00;;;;;;5009499;28;20204;-78
2022/03/05 02:04:28;;;;;;;43.73;19.27;;;-1.40;1.00;;;;;;5002639;28;20212;-78
2022/03/05 02:06:56;;;;;;;40.63;18.70;;;-1.50;1.00;;;;;;5006547;28;20616;-78
2022/03/05 02:09:24;;;;;;;39.73;20.17;;;-1.50;1.00;;;;;;5004693;28;20201;-78
2022/03/05 02:11:57;;;;;;;40.87;18.50;;;-1.40;1.00;;;;;;5008034;28;20229;-78
2022/03/05 02:14:24;;;;;;;40.37;18.97;;;-1.60;1.00;;;;;;4983989;28;20209;-77
2022/03/05 02:16:51;;;;;;;42.63;18.20;;;-1.60;1.00;;;;;;5016290;28;20228;-77
2022/03/05 02:19:18;;;;;;;43.37;18.93;;;-1.60;1.00;;;;;;5001586;28;20240;-77
2022/03/05 02:21:46;;;;;;;44.10;18.20;;;-1.60;1.00;;;;;;5022059;28;20199;-78
2022/03/05 02:24:31;;;;;;;43.33;19.23;;;-1.60;1.00;;;;;;5005181;28;21091;-77
2022/03/05 02:27:02;;;;;;;40.37;18.97;;;-1.60;1.00;;;;;;5009164;28;20373;-78
2022/03/05 02:29:31;;;;;;;43.03;18.93;;;-1.60;1.00;;;;;;5001728;28;20220;-78
2022/03/05 02:32:00;;;;;;;45.00;19.70;;;-1.60;1.00;;;;;;4993236;28;20208;-78
2022/03/05 02:34:30;;;;;;;45.60;20.23;;;-1.70;1.00;;;;;;5007980;28;20206;-77
2022/03/05 02:37:00;;;;;;;43.33;19.90;;;-1.60;1.00;;;;;;5016441;28;20831;-76
2022/03/05 02:39:27;;;;;;;37.77;18.13;;;-1.70;1.00;;;;;;5004399;28;20204;-77
2022/03/05 02:41:56;;;;;;;37.30;18.03;;;-1.70;1.00;;;;;;4992443;28;20206;-76
2022/03/05 02:44:31;;;;;;;42.43;18.57;;;-1.90;1.00;;;;;;4997349;28;20217;-77
2022/03/05 02:46:59;;;;;;;41.80;18.30;;;-1.90;1.00;;;;;;5006814;28;20300;-76
2022/03/05 02:49:28;;;;;;;40.50;19.57;;;-2.10;1.00;;;;;;5000756;28;20236;-76
2022/03/05 02:51:55;;;;;;;43.20;18.33;;;-1.70;1.00;;;;;;5002780;28;20708;-77
2022/03/05 02:54:25;;;;;;;39.80;19.27;;;-2.20;1.00;;;;;;4995864;28;20232;-76
2022/03/05 02:56:53;;;;;;;40.93;19.27;;;-2.30;1.00;;;;;;5010132;28;20204;-75
2022/03/05 02:59:20;;;;;;;39.57;18.53;;;-2.30;1.00;;;;;;5004541;28;20738;-78
2022/03/05 03:01:48;;;;;;;40.30;18.33;;;-2.30;1.00;;;;;;5001395;28;20826;-77
2022/03/05 03:04:15;;;;;;;43.53;19.00;;;-2.50;1.00;;;;;;4997936;28;20209;-77
2022/03/05 03:06:42;;;;;;;36.87;18.03;;;-2.50;49.80;;;;;;4993822;28;20224;-78
2022/03/05 03:09:14;;;;;;;38.27;18.47;;;-2.50;22.00;;;;;;4993420;28;20275;-76
2022/03/05 03:11:41;;;;;;;45.00;22.37;;;-2.50;99.90;;;;;;5007249;28;20363;-76
2022/03/05 03:14:11;;;;;;;46.87;21.10;;;-2.40;99.90;;;;;;5002330;28;20194;-76
2022/03/05 03:16:38;;;;;;;38.33;18.73;;;-2.30;99.90;;;;;;5001828;28;20224;-76
2022/03/05 03:19:05;;;;;;;42.30;18.50;;;-2.40;99.90;;;;;;5002663;28;20208;-78
2022/03/05 03:21:35;;;;;;;43.00;18.80;;;-2.40;99.90;;;;;;5001846;28;20284;-77
2022/03/05 03:24:07;;;;;;;41.03;18.53;;;-2.50;99.90;;;;;;5007856;28;20208;-78
2022/03/05 03:26:34;;;;;;;41.17;18.73;;;-2.50;99.90;;;;;;5001507;28;20213;-78
2022/03/05 03:29:01;;;;;;;44.83;19.50;;;-2.50;99.90;;;;;;5007022;28;20208;-78
2022/03/05 03:31:28;;;;;;;42.20;18.50;;;-2.40;99.90;;;;;;4995761;28;20208;-78
2022/03/05 03:33:56;;;;;;;44.60;18.63;;;-2.50;99.90;;;;;;4993064;28;20208;-78
2022/03/05 03:36:22;;;;;;;39.57;17.80;;;-2.40;99.90;;;;;;4994351;28;20303;-78
2022/03/05 03:38:52;;;;;;;39.17;17.43;;;-2.50;99.90;;;;;;5008650;28;20216;-77
2022/03/05 03:41:19;;;;;;;41.30;19.40;;;-2.50;99.90;;;;;;5004922;28;20197;-78
2022/03/05 03:43:46;;;;;;;41.87;18.63;;;-2.60;99.90;;;;;;5005033;28;20201;-78
2022/03/05 03:46:16;;;;;;;41.47;18.90;;;-2.60;99.90;;;;;;5002774;28;20962;-78
2022/03/05 03:48:45;;;;;;;36.77;18.53;;;-2.60;99.90;;;;;;5018173;28;20252;-78
2022/03/05 03:51:12;;;;;;;38.80;17.60;;;-2.60;99.90;;;;;;4996755;28;20214;-78
2022/03/05 03:53:41;;;;;;;39.83;18.00;;;-2.60;97.50;;;;;;5005422;28;20197;-78
2022/03/05 03:56:11;;;;;;;39.77;17.50;;;-2.70;90.20;;;;;;5021457;28;20201;-78
2022/03/05 03:58:41;;;;;;;38.00;17.90;;;-2.70;97.40;;;;;;5018608;28;20288;-78
2022/03/05 04:01:08;;;;;;;43.37;18.27;;;-2.80;80.60;;;;;;5016263;28;20219;-78
2022/03/05 04:03:35;;;;;;;40.93;18.73;;;-2.80;97.90;;;;;;4993708;28;20197;-78
2022/03/05 04:06:03;;;;;;;39.80;18.80;;;-2.10;99.90;;;;;;5008552;28;20208;-78
2022/03/05 04:08:42;;;;;;;44.87;18.17;;;-2.80;99.90;;;;;;5007855;28;20197;-77
2022/03/05 04:11:15;;;;;;;40.93;18.03;;;-2.90;97.20;;;;;;4987735;28;20251;-77
2022/03/05 04:13:46;;;;;;;41.57;18.87;;;-2.90;99.90;;;;;;4985540;28;20241;-78
2022/03/05 04:16:14;;;;;;;39.97;19.37;;;-2.90;99.90;;;;;;5008890;28;20213;-78
2022/03/05 04:18:43;;;;;;;43.00;18.13;;;-2.90;99.90;;;;;;5012847;28;20285;-77
2022/03/05 04:21:10;;;;;;;36.63;17.30;;;-2.10;99.90;;;;;;5022668;28;20303;-78
2022/03/05 04:23:37;;;;;;;37.00;17.67;;;-2.80;99.90;;;;;;5012193;28;20735;-78
2022/03/05 04:26:04;;;;;;;43.70;19.50;;;-2.90;99.90;;;;;;4994254;28;20212;-77
2022/03/05 04:28:31;;;;;;;42.10;19.10;;;-2.80;99.90;;;;;;5003181;28;20634;-77
2022/03/05 04:31:05;;;;;;;42.87;18.07;;;-2.70;99.90;;;;;;5010630;28;20201;-78
2022/03/05 04:33:41;;;;;;;41.00;18.30;;;-2.70;99.90;;;;;;5019456;28;20579;-78
2022/03/05 04:36:08;;;;;;;44.63;17.17;;;-2.70;99.90;;;;;;4997353;28;20200;-77
2022/03/05 04:38:39;;;;;;;44.70;18.60;;;-2.60;99.90;;;;;;5008224;28;20275;-78
2022/03/05 04:41:06;;;;;;;44.83;18.37;;;-2.60;99.90;;;;;;5024095;28;20248;-77
2022/03/05 04:43:33;;;;;;;42.67;19.40;;;-2.60;99.90;;;;;;5022094;28;20193;-77
2022/03/05 04:46:03;;;;;;;43.00;18.37;;;-2.70;99.90;;;;;;4994129;28;20288;-77
2022/03/05 04:48:30;;;;;;;44.13;19.07;;;-2.70;98.70;;;;;;4994768;28;20225;-77
2022/03/05 04:50:57;;;;;;;43.37;19.03;;;-2.70;99.90;;;;;;5021603;28;20205;-77
2022/03/05 04:53:24;;;;;;;48.37;19.97;;;-2.60;99.90;;;;;;5004107;28;21138;-79
2022/03/05 04:55:51;;;;;;;42.37;19.07;;;-2.60;99.90;;;;;;5004293;28;20624;-77
2022/03/05 04:58:18;;;;;;;44.50;18.40;;;-2.70;99.90;;;;;;5002225;28;20205;-77
2022/03/05 05:00:47;;;;;;;47.23;19.37;;;-2.70;99.90;;;;;;4994953;28;20190;-77
2022/03/05 05:03:14;;;;;;;48.07;19.50;;;-2.80;99.90;;;;;;5021480;28;20201;-78
2022/03/05 05:05:44;;;;;;;43.13;19.07;;;-2.90;99.90;;;;;;5006166;28;20205;-76
2022/03/05 05:08:11;;;;;;;46.87;19.87;;;-2.90;99.90;;;;;;5023055;28;20954;-77
2022/03/05 05:10:41;;;;;;;46.03;20.60;;;-3.00;99.90;;;;;;5021292;28;20249;-76
2022/03/05 05:13:13;;;;;;;39.97;18.90;;;-2.90;99.90;;;;;;5010788;28;20213;-78
2022/03/05 05:15:40;;;;;;;45.30;18.83;;;-1.90;99.90;;;;;;5003977;28;20245;-77
2022/03/05 05:18:08;;;;;;;44.33;18.83;;;-2.90;99.90;;;;;;5004207;28;20300;-77
2022/03/05 05:20:35;;;;;;;42.47;19.10;;;-2.90;99.90;;;;;;5012597;28;20212;-77
2022/03/05 05:23:02;;;;;;;42.83;19.27;;;-1.20;99.90;;;;;;5010118;28;20755;-78
2022/03/05 05:25:29;;;;;;;43.87;19.33;;;-3.00;99.90;;;;;;4992284;28;20209;-77
2022/03/05 05:27:56;;;;;;;42.93;18.43;;;-3.00;99.90;;;;;;5019385;28;20230;-77
2022/03/05 05:30:27;;;;;;;44.93;19.90;;;-2.90;99.90;;;;;;5011129;28;20918;-77
2022/03/05 05:32:55;;;;;;;45.00;19.50;;;-2.90;99.90;;;;;;5002020;28;20213;-77
2022/03/05 05:35:25;;;;;;;41.67;18.20;;;-2.80;99.90;;;;;;5007544;28;20212;-77
2022/03/05 05:37:52;;;;;;;47.23;19.57;;;-2.80;99.90;;;;;;5018531;28;20205;-77
2022/03/05 05:40:24;;;;;;;44.67;19.00;;;-2.80;99.90;;;;;;5003135;28;20211;-77
2022/03/05 05:42:51;;;;;;;44.63;18.47;;;-2.90;99.90;;;;;;5004646;28;20220;-77
2022/03/05 05:45:20;;;;;;;44.30;19.13;;;-2.90;99.90;;;;;;4991621;28;20323;-77
2022/03/05 05:47:52;;;;;;;40.63;18.23;;;-2.90;99.90;;;;;;5004781;28;20280;-78
2022/03/05 05:50:19;;;;;;;45.03;19.07;;;-2.80;99.90;;;;;;5003871;28;20197;-77
2022/03/05 05:52:46;;;;;;;48.73;19.73;;;-2.80;99.90;;;;;;4989160;28;20892;-75
2022/03/05 05:55:13;;;;;;;43.40;18.17;;;-2.80;99.90;;;;;;5009957;28;20192;-76
2022/03/05 05:57:42;;;;;;;47.30;19.33;;;-2.80;99.90;;;;;;5021170;28;20203;-75
2022/03/05 06:00:10;;;;;;;46.73;19.17;;;-2.90;99.90;;;;;;5003349;28;20200;-76
2022/03/05 06:02:43;;;;;;;52.13;20.43;;;-3.00;99.90;;;;;;5004982;28;20263;-76
2022/03/05 06:05:13;;;;;;;47.03;18.87;;;-3.00;99.90;;;;;;5009648;28;20646;-76
2022/03/05 06:07:39;;;;;;;43.53;19.70;;;-2.10;99.90;;;;;;5009358;28;20236;-76
2022/03/05 06:10:14;;;;;;;53.10;20.80;;;-3.00;99.90;;;;;;5010335;28;20269;-76
2022/03/05 06:12:44;;;;;;;45.13;20.40;;;-3.00;99.90;;;;;;4993404;28;20254;-77
2022/03/05 06:15:14;;;;;;;40.80;18.90;;;-3.00;99.90;;;;;;5006543;28;20208;-77
2022/03/05 06:17:42;;;;;;;52.43;20.07;;;-2.90;99.90;;;;;;5019040;28;20206;-78
2022/03/05 06:20:10;;;;;;;40.40;18.30;;;-2.90;99.90;;;;;;4986854;28;20205;-77
2022/03/05 06:22:38;;;;;;;44.00;18.93;;;-2.80;99.90;;;;;;5004901;28;20229;-76
2022/03/05 06:25:06;;;;;;;48.73;20.87;;;-2.30;99.90;;;;;;5019072;28;20200;-76
2022/03/05 06:27:33;;;;;;;43.33;19.47;;;-1.50;99.90;;;;;;5016342;28;20316;-76
2022/03/05 06:30:00;;;;;;;40.50;19.50;;;-0.60;1.00;;;;;;4991305;28;20225;-76
2022/03/05 06:32:27;;;;;;;42.67;19.07;;;0.10;99.90;;;;;;4993070;28;20205;-75
2022/03/05 06:34:55;;;;;;;34.93;18.10;;;0.90;24.50;;;;;;5008367;28;20269;-75
2022/03/05 06:37:26;;;;;;;35.37;17.97;;;1.70;1.00;;;;;;5017913;28;20189;-76
2022/03/05 06:39:53;;;;;;;38.47;18.63;;;2.20;1.00;;;;;;5007104;28;20267;-76
2022/03/05 06:42:19;;;;;;;41.10;18.37;;;2.80;99.90;;;;;;5003105;28;20278;-77
2022/03/05 06:44:46;;;;;;;34.40;17.53;;;3.30;99.90;;;;;;5019586;28;20216;-75
2022/03/05 06:47:14;;;;;;;36.10;18.73;;;3.90;1.00;;;;;;5000379;28;20634;-76
2022/03/05 06:49:40;;;;;;;34.00;18.40;;;4.30;1.00;;;;;;5003409;28;20280;-76
2022/03/05 06:52:10;;;;;;;30.77;16.50;;;5.10;1.00;;;;;;5002600;28;20244;-76
2022/03/05 06:54:37;;;;;;;32.20;18.03;;;5.60;1.00;;;;;;5018520;28;20279;-76
2022/03/05 06:57:04;;;;;;;30.80;17.73;;;5.90;1.00;;;;;;5021092;28;20694;-76
2022/03/05 06:59:32;;;;;;;28.60;17.63;;;6.70;1.00;;;;;;5004768;28;20252;-80
2022/03/05 07:01:59;;;;;;;29.43;16.77;;;7.60;1.00;;;;;;4986108;28;20201;-82
2022/03/05 07:04:29;;;;;;;31.57;18.87;;;7.80;1.00;;;;;;4993037;28;20835;-80
2022/03/05 07:06:58;;;;;;;28.93;17.83;;;7.90;1.00;;;;;;5016833;28;20197;-80
2022/03/05 07:09:25;;;;;;;32.77;17.30;;;8.80;1.00;;;;;;5000192;28;20594;-80
2022/03/05 07:11:52;;;;;;;29.27;17.93;;;8.70;1.00;;;;;;4991323;28;20233;-82
2022/03/05 07:14:19;;;;;;;28.70;17.50;;;8.60;1.00;;;;;;5001401;28;20230;-81
2022/03/05 07:16:46;;;;;;;30.70;18.10;;;9.50;1.00;;;;;;4988638;28;20205;-78
2022/03/05 07:19:13;;;;;;;30.17;18.40;;;10.10;1.00;;;;;;5001840;28;20209;-78
2022/03/05 07:21:41;;;;;;;31.23;17.53;;;10.60;1.00;;;;;;5015344;28;20538;-77
2022/03/05 07:24:10;;;;;;;30.17;18.53;;;10.80;1.00;;;;;;4983496;28;20745;-79
2022/03/05 07:26:37;;;;;;;27.33;17.57;;;11.70;1.00;;;;;;4991008;28;20200;-80
2022/03/05 07:29:06;;;;;;;30.93;18.27;;;11.70;1.00;;;;;;4988193;28;20221;-79
2022/03/05 07:31:33;;;;;;;29.03;17.97;;;10.70;1.00;;;;;;5017004;28;20199;-78
2022/03/05 07:34:02;;;;;;;32.93;18.77;;;8.90;1.00;;;;;;4984318;28;20202;-79
2022/03/05 07:36:30;;;;;;;30.90;18.30;;;6.60;1.00;;;;;;5003513;28;20205;-78
2022/03/05 07:38:59;;;;;;;30.93;18.37;;;5.10;1.00;;;;;;5000683;28;20208;-79
2022/03/05 07:41:26;;;;;;;31.10;18.50;;;4.50;1.00;;;;;;5019940;28;20209;-80
2022/03/05 07:43:53;;;;;;;32.57;19.03;;;4.10;1.00;;;;;;5000537;28;20205;-82
2022/03/05 07:46:20;;;;;;;30.27;18.20;;;3.50;99.90;;;;;;5007311;28;20233;-81
2022/03/05 07:48:48;;;;;;;35.93;19.13;;;3.30;99.90;;;;;;5005515;28;20254;-77
2022/03/05 07:51:15;;;;;;;29.43;17.27;;;3.20;99.90;;;;;;5008754;28;20811;-77
2022/03/05 07:53:42;;;;;;;36.60;19.20;;;3.00;99.90;;;;;;5001320;28;20229;-77
2022/03/05 07:56:11;;;;;;;32.03;17.77;;;2.90;1.00;;;;;;5021430;28;20268;-77
2022/03/05 07:58:38;;;;;;;31.53;17.10;;;2.90;1.00;;;;;;5002800;28;20830;-77
2022/03/05 08:01:05;;;;;;;33.40;17.80;;;2.90;1.00;;;;;;4994771;28;20228;-79
2022/03/05 08:03:35;;;;;;;32.30;17.80;;;2.90;1.00;;;;;;4990563;28;20197;-76
2022/03/05 08:06:05;;;;;;;33.33;17.80;;;3.00;1.00;;;;;;5009554;28;20212;-76
2022/03/05 08:08:32;;;;;;;33.93;17.03;;;2.70;1.00;;;;;;5007424;28;20704;-76
2022/03/05 08:10:59;;;;;;;32.10;17.43;;;2.70;1.00;;;;;;5010618;28;20675;-76
2022/03/05 08:13:29;;;;;;;31.13;16.67;;;2.70;1.00;;;;;;5005326;28;20199;-76
2022/03/05 08:15:58;;;;;;;33.43;16.93;;;2.70;1.00;;;;;;4992208;28;20293;-76
2022/03/05 08:18:28;;;;;;;34.13;16.93;;;2.80;1.00;;;;;;5021365;28;20232;-77
2022/03/05 08:20:55;;;;;;;27.60;16.70;;;3.10;1.00;;;;;;5008391;28;20209;-79
2022/03/05 08:23:22;;;;;;;30.53;16.67;;;3.20;1.00;;;;;;5011335;28;20436;-77
2022/03/05 08:25:52;;;;;;;31.13;17.10;;;3.30;1.00;;;;;;5010986;28;20205;-77
2022/03/05 08:28:21;;;;;;;32.40;16.47;;;3.40;1.00;;;;;;4996948;28;20220;-77
2022/03/05 08:30:50;;;;;;;29.60;15.73;;;3.50;1.00;;;;;;5019647;28;20221;-77
2022/03/05 08:33:18;;;;;;;33.20;17.23;;;3.60;99.90;;;;;;5004549;28;20201;-78
2022/03/05 08:35:48;;;;;;;32.20;17.53;;;3.80;99.90;;;;;;4993253;28;20251;-77
2022/03/05 08:38:17;;;;;;;29.60;16.67;;;3.90;99.90;;;;;;4990630;28;20228;-77
2022/03/05 08:40:47;;;;;;;29.80;16.23;;;4.00;99.90;;;;;;5004550;28;20232;-78
2022/03/05 08:43:14;;;;;;;34.13;16.43;;;4.00;99.90;;;;;;5020923;28;20206;-77
2022/03/05 08:45:41;;;;;;;29.37;14.67;;;3.90;99.90;;;;;;5021654;28;20217;-78
2022/03/05 08:48:09;;;;;;;28.70;15.77;;;3.80;99.90;;;;;;4988994;28;20688;-78
2022/03/05 08:50:36;;;;;;;28.30;15.37;;;3.80;99.90;;;;;;4995946;28;20544;-76
2022/03/05 08:53:03;;;;;;;26.00;14.63;;;3.90;99.90;;;;;;5010514;28;20194;-77
2022/03/05 08:55:32;;;;;;;35.47;16.53;;;4.00;99.90;;;;;;4988383;28;20243;-78
2022/03/05 08:57:59;;;;;;;25.10;14.67;;;4.20;99.90;;;;;;4987869;28;20200;-76
2022/03/05 09:00:27;;;;;;;27.37;15.37;;;4.00;99.90;;;;;;4994402;28;20311;-78
2022/03/05 09:02:57;;;;;;;26.87;15.90;;;4.20;99.90;;;;;;5003692;28;20277;-77
2022/03/05 09:05:24;;;;;;;28.77;14.87;;;4.10;99.90;;;;;;5003698;28;20196;-77
2022/03/05 09:07:53;;;;;;;28.43;15.13;;;4.40;99.90;;;;;;5012116;28;20292;-77
2022/03/05 09:10:20;;;;;;;27.67;14.87;;;5.80;1.00;;;;;;5003454;28;20194;-77
2022/03/05 09:12:47;;;;;;;30.77;15.50;;;10.90;1.00;;;;;;5011051;28;20201;-77
2022/03/05 09:15:15;;;;;;;26.07;15.73;;;13.70;1.00;;;;;;5020782;28;20271;-83
2022/03/05 09:17:42;;;;;;;27.87;16.07;;;15.50;1.00;;;;;;4995069;28;20217;-84
2022/03/05 09:20:14;;;;;;;26.07;15.57;;;16.40;1.00;;;;;;5017150;28;20216;-78
2022/03/05 09:22:41;;;;;;;25.70;16.50;;;17.40;1.00;;;;;;5011403;28;20205;-77
2022/03/05 09:25:09;;;;;;;25.03;15.23;;;17.80;1.00;;;;;;5011696;28;20202;-79
2022/03/05 09:27:36;;;;;;;24.37;16.87;;;19.20;1.00;;;;;;4994053;28;20564;-80
2022/03/05 09:30:05;;;;;;;26.15;17.30;;;18.80;1.00;;;;;;4993408;28;20229;-80
2022/03/05 09:32:32;;;;;;;26.52;16.17;;;19.20;1.00;;;;;;5005313;28;20259;-79
2022/03/05 09:35:00;;;;;;;30.02;16.83;;;20.50;1.00;;;;;;5011502;28;20198;-79
2022/03/05 09:37:29;;;;;;;24.08;16.75;;;19.80;1.00;;;;;;5009341;28;20661;-80
2022/03/05 09:39:58;;;;;;;23.92;16.65;;;20.10;1.00;;;;;;5008710;28;20296;-79
2022/03/05 09:42:28;;;;;;;24.45;16.90;;;19.50;1.00;;;;;;5019190;28;20202;-81
2022/03/05 09:44:57;;;;;;;22.67;16.23;;;20.60;1.00;;;;;;4987976;28;21193;-81
2022/03/05 09:47:26;;;;;;;25.40;16.67;;;20.50;1.00;;;;;;5005624;28;20203;-79
2022/03/05 09:49:54;;;;;;;24.20;16.75;;;21.20;1.00;;;;;;4994230;28;20385;-78
2022/03/05 09:52:21;;;;;;;24.15;17.05;;;16.40;1.00;;;;;;5004245;28;20216;-79
2022/03/05 09:54:50;;;;;;;23.02;16.23;;;18.60;1.00;;;;;;5003440;28;20213;-80
2022/03/05 09:57:17;;;;;;;27.48;17.30;;;19.10;1.00;;;;;;4984462;28;20192;-79
2022/03/05 09:59:44;;;;;;;23.08;17.23;;;19.70;1.00;;;;;;4992819;28;20212;-78
2022/03/05 10:02:14;;;;;;;25.75;16.92;;;17.50;1.00;;;;;;5003864;28;20205;-79
2022/03/05 10:04:42;;;;;;;25.05;17.27;;;18.10;1.00;;;;;;5009769;28;20292;-79
2022/03/05 10:07:13;;;;;;;23.40;16.40;;;20.10;1.00;;;;;;5009549;28;20197;-79
2022/03/05 10:09:42;;;;;;;22.48;16.42;;;19.70;1.00;;;;;;5007933;28;20240;-80
2022/03/05 10:12:27;;;;;;;24.48;17.02;;;21.50;1.00;;;;;;5017909;28;20238;-82
2022/03/05 10:15:06;;;;;;;24.38;16.25;;;19.70;1.00;;;;;;4992393;28;20200;-79
2022/03/05 10:17:56;;;;;;;23.23;17.05;;;21.20;1.00;;;;;;5002204;28;20233;-79
2022/03/05 10:20:29;;;;;;;23.73;17.15;;;22.00;1.00;;;;;;4984483;28;20228;-79
2022/03/05 10:23:04;;;;;;;26.30;18.00;;;19.70;1.00;;;;;;5001684;28;20244;-82
2022/03/05 10:25:37;;;;;;;21.52;15.48;;;18.10;1.00;;;;;;4991725;28;20193;-79
2022/03/05 10:28:09;;;;;;;23.92;16.42;;;18.30;1.00;;;;;;4999278;28;20579;-80
2022/03/05 10:30:44;;;;;;;21.92;15.23;;;19.60;1.00;;;;;;4994520;28;20676;-78
2022/03/05 10:33:47;;;;;;;21.13;15.45;;;21.10;1.00;;;;;;4999851;28;20208;-78
2022/03/05 10:36:20;;;;;;;21.58;15.65;;;22.70;1.00;;;;;;4990119;28;20271;-82
2022/03/05 10:38:51;;;;;;;20.98;15.77;;;20.50;1.00;;;;;;4982792;28;20212;-79
2022/03/05 10:41:41;;;;;;;24.80;15.63;;;22.10;1.00;;;;;;5004072;28;20807;-79
2022/03/05 10:44:17;;;;;;;22.70;15.75;;;21.80;1.00;;;;;;5008943;28;20196;-80
2022/03/05 10:47:02;;;;;;;21.95;16.05;;;21.70;1.00;;;;;;5000519;28;20300;-78
2022/03/05 10:49:36;;;;;;;23.33;16.88;;;20.80;1.00;;;;;;4991627;28;20600;-79
2022/03/05 10:52:07;;;;;;;24.73;17.63;;;22.00;1.00;;;;;;5017849;28;20213;-79
2022/03/05 10:54:40;;;;;;;24.58;17.00;;;20.30;1.00;;;;;;5007581;28;20217;-79
2022/03/05 10:57:15;;;;;;;24.23;17.90;;;21.60;1.00;;;;;;5015597;28;20884;-79
2022/03/05 10:59:44;;;;;;;28.48;17.83;;;18.10;1.00;;;;;;4985979;28;21437;-79
2022/03/05 11:02:15;;;;;;;24.42;17.58;;;20.50;1.00;;;;;;4986001;28;20262;-79
2022/03/05 11:04:43;;;;;;;22.23;16.95;;;21.10;1.00;;;;;;4988845;28;20799;-80
2022/03/05 11:07:12;;;;;;;24.63;17.05;;;21.50;1.00;;;;;;5016657;28;20259;-79
2022/03/05 11:09:42;;;;;;;22.20;15.25;;;21.20;1.00;;;;;;5019843;28;20259;-80
2022/03/05 11:12:16;;;;;;;22.00;15.65;;;21.10;1.00;;;;;;5016225;28;20316;-79
2022/03/05 11:14:47;;;;;;;22.25;16.27;;;20.40;1.00;;;;;;5000564;28;20201;-81
2022/03/05 11:17:15;;;;;;;19.20;15.50;;;20.20;1.00;;;;;;5007408;28;20507;-80
2022/03/05 11:19:46;;;;;;;21.38;15.48;;;18.10;1.00;;;;;;4985013;28;20242;-80
2022/03/05 11:22:15;;;;;;;20.58;14.70;;;19.10;1.00;;;;;;5001668;28;20209;-79
2022/03/05 11:24:48;;;;;;;21.00;13.80;;;18.70;1.00;;;;;;4980900;28;20251;-80
2022/03/05 11:27:17;;;;;;;20.95;14.68;;;17.70;1.00;;;;;;4983465;28;20213;-79
2022/03/05 11:29:55;;;;;;;21.60;14.43;;;18.10;1.00;;;;;;5019142;28;20696;-80
2022/03/05 11:32:30;;;;;;;22.10;15.02;;;17.90;1.00;;;;;;4991384;28;20621;-81
2022/03/05 11:34:58;;;;;;;19.27;14.23;;;16.70;1.00;;;;;;5002848;28;20212;-81
2022/03/05 11:37:35;;;;;;;21.00;15.05;;;15.40;99.90;;;;;;5007972;28;20200;-80
2022/03/05 11:40:07;;;;;;;22.20;15.02;;;16.40;1.00;;;;;;5000743;28;20208;-79
2022/03/05 11:42:39;;;;;;;20.58;14.15;;;16.10;1.00;;;;;;5001830;28;20232;-79
2022/03/05 11:45:30;;;;;;;22.67;15.13;;;16.50;1.00;;;;;;4989641;28;20256;-79
2022/03/05 11:48:34;;;;;;;20.38;14.98;;;17.50;1.00;;;;;;5008625;28;20284;-79
2022/03/05 11:51:07;;;;;;;20.23;13.63;;;18.10;99.90;;;;;;4990797;28;20291;-78
2022/03/05 11:53:34;;;;;;;19.08;14.45;;;19.00;99.90;;;;;;5002021;28;20221;-79
2022/03/05 11:56:23;;;;;;;19.67;14.45;;;17.50;99.90;;;;;;5001148;28;20209;-78
2022/03/05 11:58:51;;;;;;;17.42;13.50;;;16.10;99.90;;;;;;5013050;28;20196;-78
2022/03/05 12:01:33;;;;;;;19.25;13.73;;;16.00;99.90;;;;;;4985666;28;20367;-79
2022/03/05 12:04:15;;;;;;;17.92;13.50;;;15.70;99.90;;;;;;4984174;28;20213;-79
2022/03/05 12:06:44;;;;;;;17.80;13.18;;;16.30;99.90;;;;;;5000275;28;20279;-79
2022/03/05 12:09:45;;;;;;;16.55;11.93;;;17.30;99.90;;;;;;5018021;28;20585;-79
2022/03/05 12:12:21;;;;;;;18.77;12.73;;;17.40;99.90;;;;;;5016621;28;20235;-78
2022/03/05 12:15:06;;;;;;;19.27;13.40;;;18.40;99.90;;;;;;5013139;28;20613;-78
2022/03/05 12:17:40;;;;;;;18.60;13.00;;;18.30;99.90;;;;;;5013896;28;20194;-79
2022/03/05 12:20:10;;;;;;;16.98;11.98;;;17.60;99.90;;;;;;4998495;28;20196;-80
2022/03/05 12:22:55;;;;;;;19.20;14.05;;;16.80;99.90;;;;;;5005465;28;20209;-79
2022/03/05 12:25:27;;;;;;;16.92;12.20;;;15.00;1.00;;;;;;5000098;28;20224;-78
2022/03/05 12:27:56;;;;;;;17.30;12.65;;;14.70;99.90;;;;;;4999212;28;20217;-80
2022/03/05 12:30:37;;;;;;;17.95;12.25;;;15.20;99.90;;;;;;4984433;28;20825;-79
2022/03/05 12:33:09;;;;;;;17.65;12.73;;;15.50;99.90;;;;;;4998444;28;20329;-79
2022/03/05 12:35:41;;;;;;;16.48;12.32;;;14.60;99.90;;;;;;5001814;28;20251;-80
2022/03/05 12:38:09;;;;;;;20.48;12.93;;;15.20;99.90;;;;;;5004983;28;20187;-79
2022/03/05 12:40:40;;;;;;;15.85;11.48;;;14.60;99.90;;;;;;4994109;28;20196;-78
2022/03/05 12:43:10;;;;;;;15.75;11.65;;;13.70;99.90;;;;;;5020881;28;20235;-78
2022/03/05 12:45:39;;;;;;;17.23;12.43;;;14.00;99.90;;;;;;5006229;28;20724;-78